createdAt,value
2023-04-02T00:01:38.797Z,102077.50
2023-04-02T00:04:28.210Z,102079.88
2023-04-02T00:07:30.744Z,102078.81
2023-04-02T00:09:59.016Z,102087.13
2023-04-02T00:12:26.971Z,102085.66
2023-04-02T00:14:58.144Z,102025.78
2023-04-02T00:17:28.096Z,102090.03
2023-04-02T00:20:01.550Z,102075.22
2023-04-02T00:22:35.902Z,102103.78
2023-04-02T00:25:15.118Z,102104.69
2023-04-02T00:27:44.010Z,102103.38
2023-04-02T00:30:15.011Z,102111.66
2023-04-02T00:32:43.622Z,102118.59
2023-04-02T00:35:16.126Z,102124.47
2023-04-02T00:37:47.258Z,102123.94
2023-04-02T00:40:21.156Z,102119.84
2023-04-02T00:42:52.044Z,102127.97
2023-04-02T00:45:27.632Z,102133.72
2023-04-02T00:48:02.061Z,102141.69
2023-04-02T00:50:36.015Z,102142.16
2023-04-02T00:53:13.927Z,102151.25
2023-04-02T00:55:44.895Z,102149.16
2023-04-02T00:58:20.343Z,102145.03
2023-04-02T01:00:52.477Z,102159.78
2023-04-02T01:03:38.133Z,102164.13
2023-04-02T01:06:13.183Z,102172.53
2023-04-02T01:08:54.089Z,102165.00
2023-04-02T01:11:39.538Z,102170.09
2023-04-02T01:14:18.945Z,102176.13
2023-04-02T01:16:55.959Z,102182.47
2023-04-02T01:19:50.459Z,102179.50
2023-04-02T01:22:32.581Z,102190.19
2023-04-02T01:25:06.501Z,102189.44
2023-04-02T01:27:43.531Z,102197.00
2023-04-02T01:30:21.182Z,102192.41
2023-04-02T01:32:50.765Z,102196.09
2023-04-02T01:35:22.784Z,102208.09
2023-04-02T01:37:59.114Z,102159.28
2023-04-02T01:40:37.082Z,102208.75
2023-04-02T01:43:18.606Z,102208.81
2023-04-02T01:45:51.158Z,102215.94
2023-04-02T01:48:23.970Z,102218.38
2023-04-02T01:50:56.527Z,102222.81
2023-04-02T01:53:28.588Z,102164.25
2023-04-02T01:56:00.446Z,102181.47
2023-04-02T01:58:33.376Z,102232.31
2023-04-02T02:01:07.285Z,102234.94
2023-04-02T02:03:38.487Z,102240.88
2023-04-02T02:06:12.436Z,102246.63
2023-04-02T02:08:46.119Z,102244.19
2023-04-02T02:11:19.016Z,102243.31
2023-04-02T02:13:53.907Z,102248.72
2023-04-02T02:16:28.252Z,102253.72
2023-04-02T02:18:59.834Z,102260.56
2023-04-02T02:21:38.534Z,102254.94
2023-04-02T02:24:16.942Z,102257.47
2023-04-02T02:26:48.709Z,102266.81
2023-04-02T02:29:22.200Z,102267.38
2023-04-02T02:31:56.639Z,102277.28
2023-04-02T02:34:32.579Z,102271.19
2023-04-02T02:37:05.973Z,102286.72
2023-04-02T02:39:39.176Z,102291.41
2023-04-02T02:42:15.063Z,102289.84
2023-04-02T02:44:47.695Z,102274.59
2023-04-02T02:47:23.214Z,102288.19
2023-04-02T02:50:00.381Z,102296.88
2023-04-02T02:52:33.719Z,102264.69
2023-04-02T02:55:07.042Z,102307.91
2023-04-02T02:57:41.597Z,102308.97
2023-04-02T03:00:13.134Z,102313.97
2023-04-02T03:02:45.729Z,102315.63
2023-04-02T03:05:21.030Z,102320.09
2023-04-02T03:07:53.357Z,102323.22
2023-04-02T03:10:28.439Z,102328.91
2023-04-02T03:13:04.302Z,102327.56
2023-04-02T03:15:38.614Z,102336.53
2023-04-02T03:18:15.840Z,102343.81
2023-04-02T03:20:49.192Z,102346.38
2023-04-02T03:23:24.898Z,102352.69
2023-04-02T03:26:02.163Z,102360.03
2023-04-02T03:28:35.633Z,102355.84
2023-04-02T03:31:09.403Z,102286.91
2023-04-02T03:33:44.397Z,102360.75
2023-04-02T03:36:22.410Z,102365.16
2023-04-02T03:38:57.224Z,102368.44
2023-04-02T03:41:33.118Z,102375.16
2023-04-02T03:44:08.649Z,102379.22
2023-04-02T03:46:43.650Z,102382.16
2023-04-02T03:49:25.229Z,102386.41
2023-04-02T03:52:00.606Z,102391.91
2023-04-02T03:54:31.339Z,102387.06
2023-04-02T03:56:59.665Z,102397.09
2023-04-02T03:59:39.985Z,102400.94
2023-04-02T04:02:20.662Z,102403.38
2023-04-02T04:04:55.187Z,102355.59
2023-04-02T04:07:31.753Z,102413.97
2023-04-02T04:10:06.092Z,102413.09
2023-04-02T04:12:36.956Z,102408.00
2023-04-02T04:15:15.335Z,102417.56
2023-04-02T04:17:54.094Z,102423.75
2023-04-02T04:20:32.414Z,102428.25
2023-04-02T04:23:10.693Z,102432.25
2023-04-02T04:25:43.274Z,102392.88
2023-04-02T04:28:20.638Z,102444.47
2023-04-02T04:30:56.108Z,102447.44
2023-04-02T04:33:26.771Z,102454.53
2023-04-02T04:36:02.685Z,102455.97
2023-04-02T04:38:34.374Z,102460.44
2023-04-02T04:41:13.637Z,102398.72
2023-04-02T04:43:46.731Z,102455.47
2023-04-02T04:46:24.169Z,102464.72
2023-04-02T04:48:56.842Z,102463.31
2023-04-02T04:51:35.271Z,102475.41
2023-04-02T04:54:03.104Z,102473.50
2023-04-02T04:56:33.969Z,102481.34
2023-04-02T04:59:08.253Z,102478.88
2023-04-02T05:01:44.879Z,102479.75
2023-04-02T05:04:25.404Z,102486.38
2023-04-02T05:07:01.820Z,102485.28
2023-04-02T05:09:36.077Z,102493.88
2023-04-02T05:12:11.845Z,102494.53
2023-04-02T05:14:46.676Z,102492.28
2023-04-02T05:17:22.909Z,102492.28
2023-04-02T05:19:58.856Z,102461.69
2023-04-02T05:22:36.874Z,102503.31
2023-04-02T05:25:22.341Z,102508.03
2023-04-02T05:28:00.038Z,102513.69
2023-04-02T05:30:51.198Z,102495.19
2023-04-02T05:33:24.966Z,102512.06
2023-04-02T05:36:01.773Z,102512.66
2023-04-02T05:38:35.932Z,102509.31
2023-04-02T05:41:08.521Z,102515.50
2023-04-02T05:43:47.475Z,102523.66
2023-04-02T05:46:18.719Z,102472.91
2023-04-02T05:48:55.896Z,102534.00
2023-04-02T05:51:34.406Z,102538.97
2023-04-02T05:54:07.803Z,102494.03
2023-04-02T05:56:44.186Z,102474.16
2023-04-02T05:59:19.973Z,102545.78
2023-04-02T06:01:54.289Z,102544.47
2023-04-02T06:04:29.869Z,102552.25
2023-04-02T06:07:07.829Z,102560.25
2023-04-02T06:09:43.593Z,102570.88
2023-04-02T06:12:26.536Z,102569.63
2023-04-02T06:14:54.869Z,102570.66
2023-04-02T06:17:23.456Z,102568.94
2023-04-02T06:19:55.777Z,102574.50
2023-04-02T06:22:28.140Z,102577.94
2023-04-02T06:25:04.564Z,102574.59
2023-04-02T06:27:36.552Z,102585.91
2023-04-02T06:30:10.251Z,102580.84
2023-04-02T06:32:38.116Z,102580.84
2023-04-02T06:35:15.408Z,102594.28
2023-04-02T06:37:46.682Z,102593.78
2023-04-02T06:40:33.081Z,102594.25
2023-04-02T06:43:03.940Z,102596.97
2023-04-02T06:45:37.827Z,102522.50
2023-04-02T06:48:06.353Z,102538.59
2023-04-02T06:50:44.281Z,102605.09
2023-04-02T06:53:22.060Z,102604.34
2023-04-02T06:56:01.637Z,102532.16
2023-04-02T06:58:29.421Z,102605.44
2023-04-02T07:00:57.830Z,102607.34
2023-04-02T07:03:28.352Z,102561.41
2023-04-02T07:05:56.094Z,102610.19
2023-04-02T07:08:26.264Z,102613.22
2023-04-02T07:10:56.318Z,102622.06
2023-04-02T07:13:27.291Z,102623.38
2023-04-02T07:15:57.356Z,102626.38
2023-04-02T07:18:29.316Z,102627.09
2023-04-02T07:21:01.391Z,102623.81
2023-04-02T07:23:29.103Z,102633.25
2023-04-02T07:25:58.594Z,102643.47
2023-04-02T07:28:32.317Z,102632.56
2023-04-02T07:31:00.258Z,102596.66
2023-04-02T07:33:32.051Z,102632.56
2023-04-02T07:36:00.061Z,102640.72
2023-04-02T07:38:27.884Z,102645.66
2023-04-02T07:40:55.626Z,102645.34
2023-04-02T07:43:28.609Z,102650.91
2023-04-02T07:45:56.378Z,102653.50
2023-04-02T07:48:24.141Z,102662.28
2023-04-02T07:50:54.072Z,102662.59
2023-04-02T07:53:29.904Z,102670.72
2023-04-02T07:55:58.694Z,102667.88
2023-04-02T07:58:27.912Z,102676.59
2023-04-02T08:00:55.703Z,102668.81
2023-04-02T08:03:28.062Z,102674.91
2023-04-02T08:05:57.902Z,102671.31
2023-04-02T08:08:28.196Z,102689.28
2023-04-02T08:10:57.991Z,102680.88
2023-04-02T08:13:27.140Z,102691.00
2023-04-02T08:16:10.909Z,102692.19
2023-04-02T08:18:38.738Z,102695.59
2023-04-02T08:21:08.715Z,102691.41
2023-04-02T08:23:37.244Z,102697.78
2023-04-02T08:26:05.915Z,102702.59
2023-04-02T08:28:35.752Z,102704.97
2023-04-02T08:31:04.902Z,102703.59
2023-04-02T08:33:32.844Z,102708.06
2023-04-02T08:36:00.948Z,102716.16
2023-04-02T08:38:28.771Z,102714.16
2023-04-02T08:41:00.839Z,102714.97
2023-04-02T08:43:59.237Z,102717.13
2023-04-02T08:46:31.809Z,102719.06
2023-04-02T08:49:05.532Z,102726.75
2023-04-02T08:51:37.078Z,102728.44
2023-04-02T08:54:21.476Z,102734.66
2023-04-02T08:56:56.396Z,102732.50
2023-04-02T08:59:35.937Z,102734.47
2023-04-02T09:02:13.674Z,102739.00
2023-04-02T09:04:45.746Z,102744.47
2023-04-02T09:07:16.581Z,102755.66
2023-04-02T09:09:48.672Z,102728.13
2023-04-02T09:12:21.006Z,102763.53
2023-04-02T09:15:09.961Z,102756.41
2023-04-02T09:17:46.753Z,102764.88
2023-04-02T09:20:28.033Z,102778.44
2023-04-02T09:22:57.327Z,102767.50
2023-04-02T09:25:29.908Z,102738.31
2023-04-02T09:28:01.688Z,102768.72
2023-04-02T09:30:44.632Z,102769.06
2023-04-02T09:33:12.972Z,102772.47
2023-04-02T09:35:59.586Z,102768.06
2023-04-02T09:38:31.680Z,102776.84
2023-04-02T09:41:05.755Z,102776.41
2023-04-02T09:43:35.938Z,102772.97
2023-04-02T09:46:19.299Z,102782.16
2023-04-02T09:48:54.172Z,102788.09
2023-04-02T09:51:25.911Z,102785.47
2023-04-02T09:54:10.036Z,102780.28
2023-04-02T09:56:43.493Z,102798.47
2023-04-02T09:59:16.962Z,102792.00
2023-04-02T10:02:00.522Z,102795.69
2023-04-02T10:04:36.895Z,102813.56
2023-04-02T10:07:09.433Z,102796.47
2023-04-02T10:09:38.987Z,102803.09
2023-04-02T10:12:13.775Z,102804.81
2023-04-02T10:14:45.933Z,102817.84
2023-04-02T10:17:22.875Z,102816.84
2023-04-02T10:19:54.567Z,102818.69
2023-04-02T10:22:26.691Z,102821.25
2023-04-02T10:24:54.410Z,102823.19
2023-04-02T10:27:33.344Z,102837.41
2023-04-02T10:30:15.934Z,102845.91
2023-04-02T10:32:56.222Z,102847.47
2023-04-02T10:35:36.953Z,102858.53
2023-04-02T10:38:38.880Z,102858.53
2023-04-02T10:41:18.035Z,102861.94
2023-04-02T10:44:25.957Z,102841.09
2023-04-02T10:47:05.108Z,102877.41
2023-04-02T10:49:43.173Z,102877.63
2023-04-02T10:52:17.809Z,102884.59
2023-04-02T10:54:52.709Z,102887.34
2023-04-02T10:57:30.084Z,102889.03
2023-04-02T11:00:09.646Z,102891.72
2023-04-02T11:02:44.820Z,102896.00
2023-04-02T11:05:22.734Z,102892.16
2023-04-02T11:07:57.865Z,102899.06
2023-04-02T11:10:29.738Z,102905.81
2023-04-02T11:13:04.822Z,102913.31
2023-04-02T11:15:35.046Z,102905.06
2023-04-02T11:18:05.223Z,102931.25
2023-04-02T11:21:00.360Z,102922.94
2023-04-02T11:23:32.818Z,102924.66
2023-04-02T11:26:31.253Z,102934.53
2023-04-02T11:29:16.750Z,102946.66
2023-04-02T11:31:45.997Z,102950.41
2023-04-02T11:34:37.856Z,102951.31
2023-04-02T11:37:10.794Z,102949.00
2023-04-02T11:39:53.625Z,102956.00
2023-04-02T11:42:29.832Z,102965.19
2023-04-02T11:45:02.037Z,102963.53
2023-04-02T11:47:32.904Z,102968.78
2023-04-02T11:50:07.152Z,102985.53
2023-04-02T11:52:53.096Z,102986.53
2023-04-02T11:55:30.659Z,102991.84
2023-04-02T11:58:26.673Z,103000.78
2023-04-02T12:01:22.400Z,102994.31
2023-04-02T12:04:21.039Z,102998.19
2023-04-02T12:06:59.928Z,102994.13
2023-04-02T12:09:31.027Z,102988.47
2023-04-02T12:12:01.396Z,103009.63
2023-04-02T12:14:50.028Z,103006.94
2023-04-02T12:17:25.130Z,103016.00
2023-04-02T12:19:55.436Z,103017.84
2023-04-02T12:22:27.194Z,103007.94
2023-04-02T12:25:02.997Z,103007.91
2023-04-02T12:27:31.111Z,103010.94
2023-04-02T12:30:16.490Z,103012.59
2023-04-02T12:32:44.246Z,103014.03
2023-04-02T12:35:31.210Z,103015.72
2023-04-02T12:37:59.182Z,103010.09
2023-04-02T12:40:30.612Z,102954.72
2023-04-02T12:43:00.380Z,103021.84
2023-04-02T12:45:31.376Z,103024.56
2023-04-02T12:48:03.537Z,103033.41
2023-04-02T12:50:31.373Z,103021.78
2023-04-02T12:53:00.937Z,103037.41
2023-04-02T12:55:35.465Z,103030.38
2023-04-02T12:58:03.157Z,103042.31
2023-04-02T13:00:36.141Z,103041.22
2023-04-02T13:03:22.571Z,103050.53
2023-04-02T13:05:55.476Z,103024.56
2023-04-02T13:08:29.058Z,103063.50
2023-04-02T13:11:03.435Z,102998.19
2023-04-02T13:13:37.817Z,103062.66
2023-04-02T13:16:08.854Z,103053.50
2023-04-02T13:18:38.566Z,103049.84
2023-04-02T13:21:29.054Z,103046.03
2023-04-02T13:23:56.950Z,103068.91
2023-04-02T13:26:29.358Z,103061.66
2023-04-02T13:29:03.730Z,103015.56
2023-04-02T13:31:33.333Z,103066.56
2023-04-02T13:34:01.188Z,103074.41
2023-04-02T13:36:29.624Z,103078.56
2023-04-02T13:38:59.567Z,103074.03
2023-04-02T13:41:35.271Z,103075.50
2023-04-02T13:44:06.759Z,103075.56
2023-04-02T13:46:37.027Z,103080.59
2023-04-02T13:49:04.727Z,103079.28
2023-04-02T13:51:37.301Z,103049.16
2023-04-02T13:54:12.338Z,103078.63
2023-04-02T13:56:41.440Z,103080.88
2023-04-02T13:59:11.558Z,103098.00
2023-04-02T14:01:40.104Z,103099.94
2023-04-02T14:04:08.932Z,103101.78
2023-04-02T14:06:54.674Z,103101.44
2023-04-02T14:09:30.824Z,103097.34
2023-04-02T14:12:10.653Z,103095.28
2023-04-02T14:14:57.016Z,103099.34
2023-04-02T14:17:39.714Z,103092.50
2023-04-02T14:20:23.033Z,103104.13
2023-04-02T14:23:08.205Z,103106.00
2023-04-02T14:25:44.181Z,103098.56
2023-04-02T14:28:24.198Z,103108.28
2023-04-02T14:31:00.542Z,103106.41
2023-04-02T14:33:38.794Z,103118.09
2023-04-02T14:36:16.663Z,103128.47
2023-04-02T14:38:57.908Z,103124.31
2023-04-02T14:41:32.053Z,103129.28
2023-04-02T14:44:05.571Z,103118.91
2023-04-02T14:46:37.750Z,103128.53
2023-04-02T14:49:20.979Z,103134.19
2023-04-02T14:51:51.493Z,103135.22
2023-04-02T14:54:25.309Z,103153.16
2023-04-02T14:56:56.495Z,103153.69
2023-04-02T14:59:31.860Z,103147.06
2023-04-02T15:02:04.473Z,103129.13
2023-04-02T15:04:38.067Z,103149.97
2023-04-02T15:07:12.810Z,103161.66
2023-04-02T15:09:48.114Z,103161.22
2023-04-02T15:12:22.802Z,103162.75
2023-04-02T15:14:56.763Z,103167.38
2023-04-02T15:17:24.803Z,103166.63
2023-04-02T15:20:05.257Z,103171.72
2023-04-02T15:22:38.994Z,103182.75
2023-04-02T15:25:17.040Z,103182.28
2023-04-02T15:28:09.119Z,103184.06
2023-04-02T15:30:40.502Z,103187.34
2023-04-02T15:33:35.475Z,103183.50
2023-04-02T15:36:23.889Z,103182.88
2023-04-02T15:38:59.679Z,103180.16
2023-04-02T15:41:35.782Z,103174.34
2023-04-02T15:44:10.790Z,103180.16
2023-04-02T15:46:51.496Z,103181.13
2023-04-02T15:49:41.167Z,103184.59
2023-04-02T15:52:13.509Z,103184.28
2023-04-02T15:55:02.399Z,103188.88
2023-04-02T15:58:06.782Z,103193.56
2023-04-02T16:00:43.365Z,103202.13
2023-04-02T16:03:42.060Z,103203.78
2023-04-02T16:06:21.712Z,103161.88
2023-04-02T16:09:00.580Z,103202.06
2023-04-02T16:11:28.392Z,103181.03
2023-04-02T16:14:14.278Z,103210.84
2023-04-02T16:16:44.037Z,103218.22
2023-04-02T16:19:26.669Z,103188.63
2023-04-02T16:22:01.902Z,103221.16
2023-04-02T16:24:34.027Z,103226.06
2023-04-02T16:27:18.981Z,103231.66
2023-04-02T16:30:01.004Z,103233.66
2023-04-02T16:32:45.606Z,103235.41
2023-04-02T16:38:03.465Z,103245.91
2023-04-02T16:40:38.192Z,103243.09
2023-04-02T16:43:20.508Z,103246.69
2023-04-02T16:46:38.144Z,103256.56
2023-04-02T16:49:15.851Z,103264.38
2023-04-02T16:51:57.027Z,103257.28
2023-04-02T16:54:31.685Z,103267.06
2023-04-02T16:57:14.901Z,103271.13
2023-04-02T16:59:50.044Z,103269.88
2023-04-02T17:02:34.814Z,103276.50
2023-04-02T17:05:13.586Z,103285.41
2023-04-02T17:07:47.679Z,103292.41
2023-04-02T17:10:31.941Z,103288.75
2023-04-02T17:13:20.739Z,103289.97
2023-04-02T17:15:52.414Z,103304.47
2023-04-02T17:18:24.813Z,103297.56
2023-04-02T17:20:53.771Z,103296.28
2023-04-02T17:23:27.524Z,103297.16
2023-04-02T17:25:59.384Z,103307.72
2023-04-02T17:28:39.075Z,103301.19
2023-04-02T17:31:13.118Z,103309.94
2023-04-02T17:33:44.632Z,103307.47
2023-04-02T17:36:28.127Z,103313.97
2023-04-02T17:39:08.039Z,103284.34
2023-04-02T17:41:41.336Z,103324.28
2023-04-02T17:44:33.650Z,103311.56
2023-04-02T17:47:11.620Z,103323.22
2023-04-02T17:49:47.372Z,103324.66
2023-04-02T17:52:20.907Z,103329.88
2023-04-02T17:55:04.272Z,103330.22
2023-04-02T17:57:42.841Z,103324.44
2023-04-02T18:00:20.467Z,103336.38
2023-04-02T18:03:06.108Z,103337.25
2023-04-02T18:05:41.625Z,103337.66
2023-04-02T18:08:22.634Z,103288.56
2023-04-02T18:11:02.987Z,103342.34
2023-04-02T18:13:35.773Z,103349.50
2023-04-02T18:16:14.744Z,103335.34
2023-04-02T18:18:54.397Z,103343.22
2023-04-02T18:21:32.644Z,103344.97
2023-04-02T18:24:16.450Z,103348.44
2023-04-02T18:26:59.699Z,103352.59
2023-04-02T18:29:38.583Z,103361.22
2023-04-02T18:32:27.583Z,103363.00
2023-04-02T18:35:06.922Z,103364.75
2023-04-02T18:37:39.928Z,103367.69
2023-04-02T18:40:27.006Z,103365.97
2023-04-02T18:43:05.550Z,103376.78
2023-04-02T18:45:42.669Z,103376.50
2023-04-02T18:48:23.372Z,103379.84
2023-04-02T18:50:55.490Z,103331.81
2023-04-02T18:53:27.737Z,103378.81
2023-04-02T18:55:59.211Z,103294.31
2023-04-02T18:58:35.139Z,103382.28
2023-04-02T19:01:06.622Z,103393.72
2023-04-02T19:03:41.999Z,103387.41
2023-04-02T19:06:14.835Z,103390.22
2023-04-02T19:08:48.492Z,103399.22
2023-04-02T19:11:18.969Z,103400.09
2023-04-02T19:13:48.982Z,103405.63
2023-04-02T19:16:32.458Z,103409.31
2023-04-02T19:19:12.329Z,103410.03
2023-04-02T19:22:18.687Z,103410.56
2023-04-02T19:25:22.621Z,103416.13
2023-04-02T19:28:06.521Z,103412.81
2023-04-02T19:30:46.546Z,103405.81
2023-04-02T19:33:30.046Z,103406.69
2023-04-02T19:36:00.449Z,103408.88
2023-04-02T19:38:41.061Z,103413.97
2023-04-02T19:41:14.298Z,103408.66
2023-04-02T19:43:46.215Z,103381.44
2023-04-02T19:46:15.586Z,103423.81
2023-04-02T19:52:10.279Z,103424.91
2023-04-02T19:54:38.531Z,103419.91
2023-04-02T19:57:06.785Z,103384.38
2023-04-02T19:59:36.532Z,103421.75
2023-04-02T20:02:09.983Z,103434.03
2023-04-02T20:04:41.135Z,103429.59
2023-04-02T20:07:08.954Z,103431.25
2023-04-02T20:09:36.652Z,103437.41
2023-04-02T20:12:06.601Z,103444.38
2023-04-02T20:14:36.578Z,103430.41
2023-04-02T20:17:05.725Z,103441.91
2023-04-02T20:19:35.366Z,103435.25
2023-04-02T20:22:05.322Z,103430.41
2023-04-02T20:24:33.145Z,103426.47
2023-04-02T20:27:02.680Z,103380.25
2023-04-02T20:29:32.930Z,103440.88
2023-04-02T20:32:00.648Z,103445.38
2023-04-02T20:34:29.882Z,103444.09
2023-04-02T20:36:59.985Z,103448.72
2023-04-02T20:39:28.777Z,103396.25
2023-04-02T20:42:02.709Z,103440.72
2023-04-02T20:44:32.720Z,103439.09
2023-04-02T20:47:02.629Z,103439.66
2023-04-02T20:49:32.011Z,103438.34
2023-04-02T20:51:59.766Z,103434.06
2023-04-02T20:54:29.794Z,103444.09
2023-04-02T20:56:59.414Z,103439.41
2023-04-02T20:59:27.131Z,103437.41
2023-04-02T21:01:54.976Z,103438.91
2023-04-02T21:04:22.985Z,103438.25
2023-04-02T21:06:56.862Z,103437.38
2023-04-02T21:09:26.817Z,103441.66
2023-04-02T21:11:54.524Z,103442.13
2023-04-02T21:14:22.250Z,103446.66
2023-04-02T21:16:54.108Z,103441.41
2023-04-02T21:19:21.797Z,103435.41
2023-04-02T21:21:49.527Z,103439.41
2023-04-02T21:24:22.477Z,103432.72
2023-04-02T21:26:51.550Z,103447.59
2023-04-02T21:29:19.314Z,103448.72
2023-04-02T21:31:52.571Z,103447.28
2023-04-02T21:34:22.799Z,103446.19
2023-04-02T21:36:55.295Z,103427.28
2023-04-02T21:39:27.365Z,103457.03
2023-04-02T21:41:55.388Z,103452.06
2023-04-02T21:44:26.734Z,103453.88
2023-04-02T21:46:56.851Z,103456.03
2023-04-02T21:49:29.283Z,103451.81
2023-04-02T21:51:56.952Z,103453.97
2023-04-02T21:54:26.170Z,103455.72
2023-04-02T21:56:58.119Z,103444.78
2023-04-02T21:59:25.989Z,103463.00
2023-04-02T22:01:54.238Z,103455.72
2023-04-02T22:04:30.475Z,103457.69
2023-04-02T22:06:58.383Z,103459.50
2023-04-02T22:09:29.637Z,103463.06
2023-04-02T22:12:01.608Z,103460.91
2023-04-02T22:14:31.931Z,103463.06
2023-04-02T22:16:59.773Z,103461.59
2023-04-02T22:19:29.868Z,103456.03
2023-04-02T22:21:59.835Z,103454.19
2023-04-02T22:24:29.152Z,103457.69
2023-04-02T22:26:58.760Z,103461.66
2023-04-02T22:29:28.747Z,103458.16
2023-04-02T22:31:56.483Z,103464.56
2023-04-02T22:34:32.702Z,103467.09
2023-04-02T22:37:02.905Z,103467.09
2023-04-02T22:39:32.022Z,103472.38
2023-04-02T22:42:01.582Z,103473.34
2023-04-02T22:44:31.480Z,103478.75
2023-04-02T22:46:59.377Z,103474.78
2023-04-02T22:49:29.207Z,103471.22
2023-04-02T22:51:57.079Z,103474.00
2023-04-02T22:54:24.776Z,103464.88
2023-04-02T22:56:55.720Z,103468.03
2023-04-02T22:59:25.887Z,103473.84
2023-04-02T23:01:53.847Z,103466.88
2023-04-02T23:04:23.657Z,103479.19
2023-04-02T23:06:53.478Z,103430.88
2023-04-02T23:09:21.461Z,103461.78
2023-04-02T23:11:51.369Z,103468.94
2023-04-02T23:14:22.670Z,103430.41
2023-04-02T23:16:50.436Z,103483.31
2023-04-02T23:19:20.291Z,103469.88
2023-04-02T23:21:50.118Z,103474.94
2023-04-02T23:24:17.988Z,103472.16
2023-04-02T23:26:47.568Z,103477.28
2023-04-02T23:29:17.504Z,103479.81
2023-04-02T23:31:47.026Z,103479.00
2023-04-02T23:34:16.768Z,103484.94
2023-04-02T23:36:46.686Z,103491.44
2023-04-02T23:39:15.288Z,103469.03
2023-04-02T23:41:45.704Z,103496.19
2023-04-02T23:44:15.545Z,103486.78
2023-04-02T23:46:43.288Z,103490.91
2023-04-02T23:49:14.894Z,103490.66
2023-04-02T23:51:44.759Z,103486.84
2023-04-02T23:54:15.363Z,103494.41
2023-04-02T23:56:45.610Z,103492.31
2023-04-02T23:59:15.586Z,103493.66
